createdAt,value
2018-11-06T00:00:49.410Z,96.90
2018-11-06T00:03:23.993Z,96.90
2018-11-06T00:05:52.973Z,96.90
2018-11-06T00:08:21.860Z,97.00
2018-11-06T00:10:50.468Z,97.00
2018-11-06T00:13:19.480Z,97.00
2018-11-06T00:15:48.271Z,97.20
2018-11-06T00:18:16.751Z,97.10
2018-11-06T00:20:45.417Z,97.00
2018-11-06T00:23:14.117Z,97.10
2018-11-06T00:25:42.682Z,97.20
2018-11-06T00:28:11.258Z,97.30
2018-11-06T00:30:39.808Z,97.40
2018-11-06T00:33:08.588Z,97.40
2018-11-06T00:35:37.134Z,97.40
2018-11-06T00:38:05.734Z,97.50
2018-11-06T00:40:34.296Z,97.60
2018-11-06T00:43:04.169Z,97.60
2018-11-06T00:45:32.761Z,97.60
2018-11-06T00:48:01.247Z,97.60
2018-11-06T00:50:29.737Z,98.00
2018-11-06T00:52:58.261Z,97.70
2018-11-06T00:55:27.060Z,97.50
2018-11-06T00:57:56.142Z,97.50
2018-11-06T01:00:24.767Z,97.60
2018-11-06T01:02:53.396Z,97.70
2018-11-06T01:05:22.442Z,97.80
2018-11-06T01:07:51.993Z,98.10
2018-11-06T01:10:20.493Z,97.90
2018-11-06T01:12:50.100Z,97.70
2018-11-06T01:15:19.116Z,97.70
2018-11-06T01:17:48.456Z,97.90
2018-11-06T01:20:18.226Z,98.10
2018-11-06T01:22:46.941Z,98.10
2018-11-06T01:25:15.904Z,98.10
2018-11-06T01:27:44.557Z,98.20
2018-11-06T01:30:16.394Z,98.10
2018-11-06T01:32:46.393Z,98.10
2018-11-06T01:35:15.492Z,98.10
2018-11-06T01:37:45.565Z,98.30
2018-11-06T01:40:15.483Z,98.30
2018-11-06T01:42:45.048Z,98.30
2018-11-06T01:45:15.077Z,98.00
2018-11-06T01:47:43.724Z,97.90
2018-11-06T01:50:15.167Z,98.00
2018-11-06T01:52:44.872Z,98.20
2018-11-06T01:55:13.950Z,98.10
2018-11-06T01:57:42.489Z,98.10
2018-11-06T02:00:13.702Z,98.20
2018-11-06T02:02:42.323Z,98.40
2018-11-06T02:05:12.564Z,98.30
2018-11-06T02:07:42.197Z,98.20
2018-11-06T02:10:11.929Z,98.50
2018-11-06T02:12:40.801Z,98.20
2018-11-06T02:15:09.824Z,98.40
2018-11-06T02:17:39.791Z,98.40
2018-11-06T02:20:08.919Z,98.50
2018-11-06T02:22:37.611Z,98.50
2018-11-06T02:25:07.681Z,98.50
2018-11-06T02:27:36.432Z,98.50
2018-11-06T02:30:05.632Z,98.50
2018-11-06T02:32:34.303Z,98.50
2018-11-06T02:35:02.791Z,98.60
2018-11-06T02:37:31.285Z,98.60
2018-11-06T02:39:59.905Z,98.60
2018-11-06T02:42:28.433Z,98.50
2018-11-06T02:44:57.165Z,98.50
2018-11-06T02:47:25.640Z,98.50
2018-11-06T02:49:54.124Z,98.60
2018-11-06T02:52:22.637Z,98.60
2018-11-06T02:54:51.347Z,98.60
2018-11-06T02:57:19.907Z,98.70
2018-11-06T02:59:48.376Z,98.80
2018-11-06T03:02:17.134Z,98.80
2018-11-06T03:04:45.798Z,98.60
2018-11-06T03:07:14.420Z,98.60
2018-11-06T03:09:42.954Z,98.40
2018-11-06T03:12:11.494Z,98.30
2018-11-06T03:14:40.040Z,98.20
2018-11-06T03:17:08.561Z,97.90
2018-11-06T03:19:37.128Z,97.70
2018-11-06T03:22:06.686Z,97.60
2018-11-06T03:24:35.177Z,97.50
2018-11-06T03:27:11.030Z,97.50
2018-11-06T03:29:39.396Z,97.20
2018-11-06T03:32:07.876Z,97.00
2018-11-06T03:34:36.335Z,97.00
2018-11-06T03:37:05.045Z,97.00
2018-11-06T03:39:34.210Z,96.90
2018-11-06T03:42:02.752Z,96.90
2018-11-06T03:44:31.394Z,96.90
2018-11-06T03:47:00.040Z,96.90
2018-11-06T03:49:28.669Z,97.00
2018-11-06T03:51:57.456Z,97.00
2018-11-06T03:54:26.040Z,96.60
2018-11-06T03:56:54.582Z,96.20
2018-11-06T03:59:23.043Z,95.80
2018-11-06T04:01:51.772Z,95.60
2018-11-06T04:04:20.271Z,95.70
2018-11-06T04:06:48.808Z,95.60
2018-11-06T04:09:17.559Z,95.70
2018-11-06T04:11:46.120Z,95.70
2018-11-06T04:14:14.654Z,95.70
2018-11-06T04:16:43.241Z,95.90
2018-11-06T04:19:11.739Z,95.90
2018-11-06T04:21:40.995Z,96.00
2018-11-06T04:24:11.078Z,95.90
2018-11-06T04:26:39.847Z,96.00
2018-11-06T04:32:05.458Z,96.00
2018-11-06T04:34:34.001Z,95.70
2018-11-06T04:37:02.533Z,95.70
2018-11-06T04:39:31.097Z,95.60
2018-11-06T04:41:59.577Z,95.60
2018-11-06T04:44:28.172Z,95.70
2018-11-06T04:46:56.696Z,95.30
2018-11-06T04:49:25.198Z,95.30
2018-11-06T04:51:53.736Z,95.00
2018-11-06T04:54:22.507Z,95.30
2018-11-06T04:56:51.082Z,95.50
2018-11-06T04:59:19.804Z,95.60
2018-11-06T05:01:48.329Z,95.90
2018-11-06T05:04:16.884Z,96.10
2018-11-06T05:06:52.111Z,96.30
2018-11-06T05:09:20.576Z,96.60
2018-11-06T05:11:49.359Z,96.70
2018-11-06T05:14:18.284Z,96.90
2018-11-06T05:16:46.882Z,97.30
2018-11-06T05:19:15.625Z,97.10
2018-11-06T05:21:44.134Z,97.20
2018-11-06T05:24:13.000Z,97.20
2018-11-06T05:26:41.661Z,97.10
2018-11-06T05:29:10.300Z,97.00
2018-11-06T05:31:38.930Z,96.90
2018-11-06T05:34:07.566Z,97.00
2018-11-06T05:36:36.880Z,96.50
2018-11-06T05:39:08.171Z,96.30
2018-11-06T05:41:38.932Z,96.20
2018-11-06T05:44:07.611Z,96.10
2018-11-06T05:46:36.052Z,96.20
2018-11-06T05:49:04.857Z,96.00
2018-11-06T05:51:33.564Z,96.00
2018-11-06T05:54:02.239Z,95.90
2018-11-06T05:56:31.003Z,95.60
2018-11-06T05:58:59.615Z,95.50
2018-11-06T06:01:28.307Z,95.40
2018-11-06T06:03:56.890Z,95.60
2018-11-06T06:06:25.516Z,95.30
2018-11-06T06:08:54.380Z,95.40
2018-11-06T06:11:35.854Z,95.50
2018-11-06T06:14:04.586Z,95.60
2018-11-06T06:16:33.245Z,95.80
2018-11-06T06:19:01.914Z,95.80
2018-11-06T06:21:30.566Z,95.90
2018-11-06T06:23:59.257Z,95.90
2018-11-06T06:26:27.858Z,95.80
2018-11-06T06:28:56.634Z,95.80
2018-11-06T06:31:25.328Z,95.80
2018-11-06T06:33:54.241Z,95.80
2018-11-06T06:36:23.149Z,95.70
2018-11-06T06:38:53.099Z,95.20
2018-11-06T06:41:21.882Z,94.70
2018-11-06T06:43:51.245Z,94.50
2018-11-06T06:46:20.595Z,94.60
2018-11-06T06:48:49.192Z,94.70
2018-11-06T06:51:18.817Z,94.80
2018-11-06T06:53:48.987Z,94.80
2018-11-06T06:56:17.665Z,95.00
2018-11-06T06:58:47.137Z,95.10
2018-11-06T07:01:16.408Z,95.10
2018-11-06T07:03:45.323Z,95.20
2018-11-06T07:06:13.774Z,95.30
2018-11-06T07:08:42.489Z,95.30
2018-11-06T07:11:10.958Z,95.40
2018-11-06T07:13:39.536Z,95.30
2018-11-06T07:16:08.098Z,95.40
2018-11-06T07:18:37.219Z,95.40
2018-11-06T07:21:05.721Z,95.50
2018-11-06T07:23:35.345Z,95.20
2018-11-06T07:26:04.201Z,95.30
2018-11-06T07:28:32.984Z,95.30
2018-11-06T07:31:01.500Z,95.00
2018-11-06T07:34:04.496Z,94.90
2018-11-06T07:36:34.069Z,94.60
2018-11-06T07:39:02.720Z,94.40
2018-11-06T07:41:31.212Z,94.30
2018-11-06T07:43:59.866Z,94.00
2018-11-06T07:46:28.556Z,93.90
2018-11-06T07:48:58.717Z,93.70
2018-11-06T07:51:37.061Z,93.30
2018-11-06T07:54:14.553Z,93.10
2018-11-06T07:56:55.771Z,92.70
2018-11-06T07:59:26.018Z,92.40
2018-11-06T08:01:59.807Z,92.30
2018-11-06T08:04:33.683Z,92.10
2018-11-06T08:07:02.448Z,91.90
2018-11-06T08:09:31.138Z,91.70
2018-11-06T08:11:59.558Z,91.50
2018-11-06T08:14:28.075Z,91.90
2018-11-06T08:16:56.466Z,91.40
2018-11-06T08:19:24.936Z,91.50
2018-11-06T08:21:53.441Z,90.90
2018-11-06T08:24:21.910Z,90.80
2018-11-06T08:26:50.334Z,91.00
2018-11-06T08:29:18.779Z,91.20
2018-11-06T08:31:47.588Z,91.00
2018-11-06T08:34:15.748Z,90.90
2018-11-06T08:36:44.487Z,90.70
2018-11-06T08:39:13.075Z,90.50
2018-11-06T08:41:41.799Z,90.10
2018-11-06T08:44:10.575Z,90.00
2018-11-06T08:46:39.048Z,90.00
2018-11-06T08:49:07.622Z,89.40
2018-11-06T08:51:36.076Z,89.20
2018-11-06T08:54:05.574Z,88.70
2018-11-06T08:56:35.083Z,88.60
2018-11-06T08:59:03.988Z,88.30
2018-11-06T09:01:32.484Z,88.00
2018-11-06T09:04:01.059Z,87.20
2018-11-06T09:06:29.815Z,87.10
2018-11-06T09:08:58.638Z,86.40
2018-11-06T09:11:27.185Z,86.40
2018-11-06T09:13:55.705Z,86.50
2018-11-06T09:16:24.583Z,85.80
2018-11-06T09:18:54.149Z,85.40
2018-11-06T09:21:22.680Z,85.20
2018-11-06T09:23:51.142Z,84.80
2018-11-06T09:26:20.611Z,84.40
2018-11-06T09:28:51.379Z,84.00
2018-11-06T09:31:34.305Z,84.00
2018-11-06T09:34:22.260Z,83.50
2018-11-06T09:37:01.274Z,83.40
2018-11-06T09:39:29.927Z,83.00
2018-11-06T09:41:59.795Z,82.80
2018-11-06T09:44:42.754Z,83.20
2018-11-06T09:47:12.172Z,80.80
2018-11-06T09:49:41.945Z,82.10
2018-11-06T09:52:11.325Z,80.30
2018-11-06T09:54:46.484Z,79.80
2018-11-06T09:57:15.685Z,79.70
2018-11-06T09:59:44.219Z,79.60
2018-11-06T10:02:13.504Z,78.20
2018-11-06T10:04:52.800Z,77.40
2018-11-06T10:07:32.094Z,77.60
2018-11-06T10:10:06.445Z,77.80
2018-11-06T10:12:36.166Z,77.50
2018-11-06T10:15:40.957Z,78.20
2018-11-06T10:18:19.053Z,77.20
2018-11-06T10:35:34.464Z,76.80
2018-11-06T10:38:03.048Z,76.30
2018-11-06T10:40:31.589Z,75.80
2018-11-06T10:43:01.308Z,75.80
2018-11-06T10:45:29.824Z,75.10
2018-11-06T10:47:58.356Z,75.10
2018-11-06T10:50:26.812Z,74.90
2018-11-06T10:52:55.241Z,75.40
2018-11-06T10:55:23.730Z,75.20
2018-11-06T10:57:52.242Z,75.30
2018-11-06T11:00:26.216Z,74.80
2018-11-06T11:02:59.985Z,74.60
2018-11-06T11:05:29.413Z,74.10
2018-11-06T11:07:57.908Z,73.80
2018-11-06T11:10:26.710Z,73.30
2018-11-06T11:12:55.295Z,72.30
2018-11-06T11:15:23.735Z,71.40
2018-11-06T11:17:52.188Z,71.00
2018-11-06T11:20:20.820Z,70.90
2018-11-06T11:22:49.195Z,71.80
2018-11-06T11:25:17.715Z,70.60
2018-11-06T11:27:47.090Z,69.70
2018-11-06T11:30:17.023Z,69.70
2018-11-06T11:33:00.715Z,68.90
2018-11-06T11:35:38.513Z,68.20
2018-11-06T11:38:07.370Z,68.20
2018-11-06T11:40:40.388Z,68.30
2018-11-06T11:43:09.629Z,67.90
2018-11-06T11:45:38.226Z,67.80
2018-11-06T11:48:07.718Z,67.60
2018-11-06T11:53:16.574Z,67.00
2018-11-06T11:55:45.895Z,67.70
2018-11-06T11:58:39.163Z,67.50
2018-11-06T12:01:08.115Z,67.30
2018-11-06T12:03:36.574Z,68.40
2018-11-06T12:06:05.078Z,67.90
2018-11-06T12:08:33.579Z,67.50
2018-11-06T12:11:02.209Z,67.60
2018-11-06T12:13:31.090Z,67.50
2018-11-06T12:16:00.283Z,67.70
2018-11-06T12:18:29.182Z,67.60
2018-11-06T12:20:58.026Z,67.40
2018-11-06T12:23:26.519Z,67.00
2018-11-06T12:25:56.457Z,66.60
2018-11-06T12:28:28.274Z,65.50
2018-11-06T12:30:58.006Z,65.30
2018-11-06T12:33:31.072Z,64.90
2018-11-06T12:36:02.747Z,65.10
2018-11-06T12:38:31.681Z,64.00
2018-11-06T12:41:01.437Z,64.30
2018-11-06T12:43:32.540Z,64.20
2018-11-06T12:46:35.701Z,64.10
2018-11-06T12:49:23.326Z,62.70
2018-11-06T12:52:04.002Z,62.10
2018-11-06T12:54:33.955Z,62.20
2018-11-06T12:57:02.564Z,62.10
2018-11-06T12:59:31.861Z,62.70
2018-11-06T13:02:02.048Z,62.10
2018-11-06T13:04:36.319Z,62.10
2018-11-06T13:07:06.889Z,62.20
2018-11-06T13:09:35.810Z,62.40
2018-11-06T13:12:07.622Z,62.10
2018-11-06T13:14:37.072Z,62.10
2018-11-06T13:17:06.096Z,61.50
2018-11-06T13:19:37.665Z,61.10
2018-11-06T13:22:07.432Z,61.00
2018-11-06T13:24:36.429Z,60.90
2018-11-06T13:27:09.622Z,60.90
2018-11-06T13:29:38.665Z,61.00
2018-11-06T13:32:07.357Z,61.60
2018-11-06T13:34:35.973Z,61.50
2018-11-06T13:37:04.716Z,61.40
2018-11-06T13:39:33.249Z,61.40
2018-11-06T13:42:01.942Z,61.60
2018-11-06T13:44:31.347Z,61.70
2018-11-06T13:46:59.695Z,62.10
2018-11-06T13:49:28.421Z,62.30
2018-11-06T13:51:57.103Z,62.80
2018-11-06T13:54:25.715Z,63.00
2018-11-06T13:56:54.365Z,63.30
2018-11-06T13:59:23.072Z,64.10
2018-11-06T14:01:51.705Z,64.50
2018-11-06T14:04:20.451Z,64.20
2018-11-06T14:06:51.310Z,63.70
2018-11-06T14:09:20.046Z,63.70
2018-11-06T14:11:48.774Z,63.90
2018-11-06T14:14:17.823Z,63.90
2018-11-06T14:16:46.503Z,63.90
2018-11-06T14:19:15.025Z,63.80
2018-11-06T14:21:44.972Z,64.30
2018-11-06T14:24:13.701Z,64.80
2018-11-06T14:26:42.206Z,64.90
2018-11-06T14:29:11.269Z,65.10
2018-11-06T14:31:40.081Z,65.40
2018-11-06T14:34:08.872Z,65.80
2018-11-06T14:36:37.381Z,66.10
2018-11-06T14:39:07.940Z,66.30
2018-11-06T14:41:36.874Z,66.40
2018-11-06T14:44:05.969Z,66.80
2018-11-06T14:46:35.209Z,68.20
2018-11-06T14:49:04.134Z,67.80
2018-11-06T14:51:33.776Z,67.70
2018-11-06T14:54:09.241Z,68.10
2018-11-06T14:56:45.613Z,68.30
2018-11-06T14:59:43.722Z,68.60
2018-11-06T15:02:21.244Z,69.90
2018-11-06T15:04:52.983Z,70.00
2018-11-06T15:07:28.970Z,70.00
2018-11-06T15:10:02.691Z,70.20
2018-11-06T15:12:41.680Z,70.60
2018-11-06T15:15:12.608Z,71.10
2018-11-06T15:17:44.724Z,71.30
2018-11-06T15:20:16.673Z,71.40
2018-11-06T15:22:46.263Z,71.90
2018-11-06T15:25:15.974Z,72.30
2018-11-06T15:27:44.480Z,73.10
2018-11-06T15:30:13.975Z,73.60
2018-11-06T15:32:42.881Z,74.20
2018-11-06T15:35:12.643Z,74.80
2018-11-06T15:37:41.101Z,75.30
2018-11-06T15:40:11.988Z,76.10
2018-11-06T15:42:40.425Z,76.50
2018-11-06T15:45:10.496Z,77.60
2018-11-06T15:47:40.132Z,77.50
2018-11-06T15:50:10.285Z,78.10
2018-11-06T15:52:39.075Z,78.50
2018-11-06T15:55:08.733Z,79.30
2018-11-06T15:57:37.471Z,79.90
2018-11-06T16:00:12.773Z,80.50
2018-11-06T16:02:41.550Z,80.90
2018-11-06T16:05:10.071Z,81.10
2018-11-06T16:07:38.991Z,81.70
2018-11-06T16:10:17.678Z,82.00
2018-11-06T16:12:46.456Z,82.40
2018-11-06T16:15:15.121Z,82.90
2018-11-06T16:17:43.684Z,83.40
2018-11-06T16:20:14.356Z,83.70
2018-11-06T16:22:43.007Z,84.20
2018-11-06T16:25:13.188Z,84.60
2018-11-06T16:27:42.009Z,84.80
2018-11-06T16:30:12.789Z,84.40
2018-11-06T16:32:41.342Z,84.30
2018-11-06T16:35:12.256Z,84.10
2018-11-06T16:37:41.215Z,83.70
2018-11-06T16:40:10.187Z,83.30
2018-11-06T16:42:38.871Z,82.90
2018-11-06T16:45:09.338Z,83.10
2018-11-06T16:47:37.792Z,83.10
2018-11-06T16:50:07.916Z,83.40
2018-11-06T16:52:36.455Z,83.30
2018-11-06T16:55:05.052Z,83.20
2018-11-06T16:57:33.542Z,83.30
2018-11-06T17:00:02.417Z,83.80
2018-11-06T17:02:41.079Z,83.90
2018-11-06T17:08:11.071Z,84.20
2018-11-06T17:10:45.472Z,84.50
2018-11-06T17:13:26.964Z,85.70
2018-11-06T17:16:22.879Z,85.10
2018-11-06T17:19:46.867Z,85.30
2018-11-06T17:22:15.321Z,85.40
2018-11-06T17:24:49.685Z,85.50
2018-11-06T17:27:30.224Z,85.60
2018-11-06T17:29:58.676Z,85.70
2018-11-06T17:32:35.775Z,86.70
2018-11-06T17:35:04.349Z,85.60
2018-11-06T17:37:38.852Z,85.60
2018-11-06T17:40:18.563Z,85.40
2018-11-06T17:42:55.126Z,85.00
2018-11-06T17:45:27.832Z,84.80
2018-11-06T17:47:56.533Z,84.60
2018-11-06T17:50:40.608Z,84.50
2018-11-06T17:53:14.073Z,84.50
2018-11-06T17:56:15.573Z,84.50
2018-11-06T17:58:45.637Z,84.50
2018-11-06T18:01:15.188Z,84.40
2018-11-06T18:03:43.746Z,84.40
2018-11-06T18:06:12.646Z,84.10
2018-11-06T18:08:44.936Z,84.10
2018-11-06T18:11:13.431Z,84.20
2018-11-06T18:13:41.930Z,84.00
2018-11-06T18:16:10.573Z,84.00
2018-11-06T18:18:39.224Z,84.90
2018-11-06T18:21:07.817Z,83.80
2018-11-06T18:23:36.949Z,83.60
2018-11-06T18:26:05.647Z,83.60
2018-11-06T18:28:40.643Z,83.70
2018-11-06T18:31:09.293Z,83.80
2018-11-06T18:33:37.769Z,83.80
2018-11-06T18:36:06.253Z,83.90
2018-11-06T18:38:35.141Z,84.20
2018-11-06T18:41:04.349Z,84.20
2018-11-06T18:43:33.050Z,84.50
2018-11-06T18:46:01.948Z,84.90
2018-11-06T18:48:34.178Z,85.20
2018-11-06T18:51:02.711Z,85.40
2018-11-06T18:53:31.242Z,85.70
2018-11-06T18:55:59.876Z,85.90
2018-11-06T18:58:28.477Z,86.10
2018-11-06T19:00:57.112Z,86.20
2018-11-06T19:03:25.639Z,86.30
2018-11-06T19:05:55.166Z,86.50
2018-11-06T19:08:23.736Z,86.50
2018-11-06T19:10:53.253Z,86.80
2018-11-06T19:13:21.933Z,87.10
2018-11-06T19:15:50.619Z,87.00
2018-11-06T19:18:19.250Z,87.20
2018-11-06T19:20:47.749Z,87.30
2018-11-06T19:23:16.264Z,87.40
2018-11-06T19:25:44.831Z,87.30
2018-11-06T19:28:13.513Z,87.50
2018-11-06T19:30:42.297Z,87.70
2018-11-06T19:33:10.893Z,87.80
2018-11-06T19:35:39.384Z,87.80
2018-11-06T19:38:08.655Z,87.90
2018-11-06T19:40:37.239Z,87.70
2018-11-06T19:43:05.809Z,87.80
2018-11-06T19:46:05.881Z,87.90
2018-11-06T19:48:34.675Z,87.90
2018-11-06T19:51:03.303Z,87.70
2018-11-06T19:53:32.014Z,87.80
2018-11-06T19:56:00.556Z,87.90
2018-11-06T19:59:09.702Z,88.40
2018-11-06T20:01:58.965Z,88.00
2018-11-06T20:04:27.574Z,87.90
2018-11-06T20:06:56.039Z,88.00
2018-11-06T20:09:25.452Z,88.00
2018-11-06T20:11:54.025Z,88.90
2018-11-06T20:14:22.576Z,88.00
2018-11-06T20:16:59.048Z,87.80
2018-11-06T20:19:27.577Z,87.70
2018-11-06T20:21:56.976Z,87.70
2018-11-06T20:24:38.656Z,87.50
2018-11-06T20:27:07.508Z,87.50
2018-11-06T20:29:39.229Z,87.60
2018-11-06T20:32:15.625Z,87.50
2018-11-06T20:34:44.193Z,87.70
2018-11-06T20:37:12.742Z,87.80
2018-11-06T20:39:47.270Z,87.80
2018-11-06T20:42:17.918Z,87.90
2018-11-06T20:44:46.529Z,88.00
2018-11-06T20:47:17.119Z,88.00
2018-11-06T20:49:45.990Z,88.00
2018-11-06T20:52:20.151Z,88.20
2018-11-06T20:54:48.821Z,88.40
2018-11-06T20:57:17.346Z,88.50
2018-11-06T20:59:47.094Z,88.70
2018-11-06T21:02:23.739Z,88.80
2018-11-06T21:10:56.838Z,89.30
2018-11-06T21:13:29.210Z,89.30
2018-11-06T21:15:57.916Z,89.50
2018-11-06T21:18:26.947Z,89.60
2018-11-06T21:20:55.646Z,89.60
2018-11-06T21:23:24.237Z,89.40
2018-11-06T21:25:54.354Z,89.40
2018-11-06T21:30:59.611Z,89.70
2018-11-06T21:33:28.424Z,90.00
2018-11-06T21:35:58.175Z,90.10
2018-11-06T21:38:27.063Z,90.10
2018-11-06T21:40:55.775Z,90.10
2018-11-06T21:43:25.542Z,90.20
2018-11-06T21:45:54.168Z,90.10
2018-11-06T21:48:22.877Z,90.10
2018-11-06T21:50:51.538Z,90.10
2018-11-06T21:53:20.250Z,90.10
2018-11-06T21:55:48.862Z,90.30
2018-11-06T21:58:17.466Z,90.30
2018-11-06T22:00:46.119Z,90.40
2018-11-06T22:03:14.561Z,90.50
2018-11-06T22:05:43.185Z,90.50
2018-11-06T22:11:04.754Z,90.60
2018-11-06T22:13:33.395Z,90.60
2018-11-06T22:16:02.141Z,90.70
2018-11-06T22:18:30.998Z,90.70
2018-11-06T22:21:00.655Z,90.70
2018-11-06T22:23:29.932Z,90.70
2018-11-06T22:25:58.624Z,90.80
2018-11-06T22:28:55.303Z,90.90
2018-11-06T22:31:36.794Z,91.00
2018-11-06T22:34:05.813Z,91.10
2018-11-06T22:36:35.995Z,91.20
2018-11-06T22:39:09.369Z,91.20
2018-11-06T22:41:39.655Z,91.10
2018-11-06T22:44:08.519Z,91.10
2018-11-06T22:46:37.443Z,91.00
2018-11-06T22:49:06.616Z,91.00
2018-11-06T22:51:43.933Z,90.90
